モロニ の空港の天気 - METARとTAF

プリンス・サイード・イブラヒーム国際空港 ( FMCH / HAH ) - コモロ モロニ
飛行場実況気象(Metar)
観測時間12/09 18:00 EAT (12/09 15:00 UTC)
風向・風速南南西 2m/s
視程10km以上
天気現象
少しの雲 雲底高度 610m
気温29℃
湿度70%
気圧1011hPa
METARFMCH 091500Z 21003KT 170V250 9999 FEW020 29/23 Q1011 NOSIG
過去の天気等 Google飛行場航空写真 Wunderground天気予報

過去48時間のMETAR

飛行場予報(TAF)
発表時間: -
9日15時 EAT ~ 9日18時 EAT に 確率 30% で一時的に
視程4500m
天気現象しゅう雨
9日18時 EAT ~ 9日20時 EAT に徐々に
風向・風速東 2m/s
10日9時 EAT ~ 10日11時 EAT に徐々に
風向・風速西南西 5m/s
TAF
FMCH 091100Z 0912/1018 28010KT 9999 FEW020TCU SCT030
PROB30 TEMPO 0912/0915 4500 SHRA
BECMG 0915/0917 08003KT
BECMG 1006/1008 24010KT